Time;durP1;ratioP1;P1;durP2;ratioP2;P2;SDS_P1;SDS_P2;PMS_P1;PMS_P2;Temp;Humidity;BMP_temperature;BMP_pressure;BME280_temperature;BME280_humidity;BME280_pressure;Samples;Min_cycle;Max_cycle;Signal;HPM_P1;HPM_P2
2022/05/26 00:02:00;;;;;;;5.57;5.13;;;16.30;99.90;;;;;;4182722;28;20550;-66
2022/05/26 00:04:03;;;;;;;6.97;4.00;;;16.30;99.90;;;;;;4173031;28;20045;-65
2022/05/26 00:06:06;;;;;;;5.60;4.40;;;16.20;99.90;;;;;;4174012;28;20053;-67
2022/05/26 00:08:07;;;;;;;3.95;2.90;;;16.10;99.90;;;;;;4188088;28;20758;-66
2022/05/26 00:10:08;;;;;;;4.88;2.38;;;16.10;99.90;;;;;;4189592;28;20029;-67
2022/05/26 00:12:11;;;;;;;3.67;1.42;;;16.00;99.90;;;;;;4190906;28;20058;-65
2022/05/26 00:14:13;;;;;;;3.50;2.05;;;16.00;99.90;;;;;;4187766;28;20075;-65
2022/05/26 00:16:15;;;;;;;1.40;1.30;;;16.00;99.90;;;;;;4191127;28;20094;-64
2022/05/26 00:18:16;;;;;;;5.00;1.25;;;16.00;99.90;;;;;;4189773;28;20416;-65
2022/05/26 00:20:17;;;;;;;3.90;1.40;;;16.00;99.90;;;;;;4190992;28;20044;-65
2022/05/26 00:22:20;;;;;;;2.92;1.67;;;16.00;99.90;;;;;;4189692;28;20109;-65
2022/05/26 00:24:21;;;;;;;2.72;1.30;;;16.00;99.90;;;;;;4190338;28;20029;-68
2022/05/26 00:26:23;;;;;;;3.47;1.50;;;16.00;99.90;;;;;;4189865;28;20105;-70
2022/05/26 00:28:25;;;;;;;1.45;1.13;;;16.00;99.90;;;;;;4176694;28;20448;-66
2022/05/26 00:30:26;;;;;;;6.00;1.83;;;16.10;99.90;;;;;;4173200;28;20529;-65
2022/05/26 00:32:27;;;;;;;2.53;1.50;;;16.10;99.90;;;;;;4173371;28;20036;-64
2022/05/26 00:34:28;;;;;;;2.03;1.40;;;16.10;99.90;;;;;;4172729;28;20095;-65
2022/05/26 00:36:39;;;;;;;2.40;1.35;;;16.10;99.90;;;;;;4173189;28;20480;-65
2022/05/26 00:38:40;;;;;;;;;;;16.10;99.90;;;;;;4173881;28;20090;-65
2022/05/26 00:40:42;;;;;;;2.22;1.30;;;16.20;99.90;;;;;;4173126;28;19909;-65
2022/05/26 00:42:45;;;;;;;2.33;1.45;;;16.10;99.90;;;;;;4174115;28;20029;-64
2022/05/26 00:44:46;;;;;;;2.22;1.52;;;16.10;99.90;;;;;;4171824;28;20106;-65
2022/05/26 00:47:07;;;;;;;2.75;1.30;;;16.10;99.90;;;;;;4173266;28;20374;-65
2022/05/26 00:49:11;;;;;;;;;;;16.20;99.90;;;;;;4173879;28;20029;-65
2022/05/26 00:51:12;;;;;;;1.92;1.50;;;16.20;99.90;;;;;;4174227;28;19908;-65
2022/05/26 00:53:18;;;;;;;4.15;1.73;;;16.20;99.90;;;;;;4189131;28;20137;-66
2022/05/26 00:55:35;;;;;;;3.55;1.60;;;16.20;99.90;;;;;;4190293;28;20433;-64
2022/05/26 00:57:50;;;;;;;1.73;1.50;;;16.20;99.90;;;;;;4189287;28;20469;-66
2022/05/26 00:59:57;;;;;;;1.45;1.35;;;16.20;99.90;;;;;;4189285;28;20041;-65
2022/05/26 01:01:58;;;;;;;1.85;1.63;;;16.20;99.90;;;;;;4189455;28;20036;-65
2022/05/26 01:04:05;;;;;;;1.63;1.50;;;16.20;99.90;;;;;;4189505;28;20451;-65
2022/05/26 01:06:31;;;;;;;4.55;1.48;;;16.20;99.90;;;;;;4188760;28;20494;-65
2022/05/26 01:08:37;;;;;;;2.50;1.77;;;16.20;99.90;;;;;;4190014;28;20032;-65
2022/05/26 01:10:38;;;;;;;2.22;2.03;;;16.30;99.90;;;;;;4186077;28;20074;-66
2022/05/26 01:12:39;;;;;;;3.70;2.13;;;16.20;99.90;;;;;;4188964;28;20052;-64
2022/05/26 01:14:49;;;;;;;5.18;2.40;;;16.20;99.90;;;;;;4189196;28;20032;-66
2022/05/26 01:16:58;;;;;;;3.97;3.53;;;16.20;99.90;;;;;;4189932;28;20486;-65
2022/05/26 01:19:23;;;;;;;3.97;2.40;;;16.20;99.90;;;;;;4188667;28;20029;-65
2022/05/26 01:21:35;;;;;;;3.65;2.25;;;16.20;99.90;;;;;;4189793;28;20061;-64
2022/05/26 01:24:00;;;;;;;3.55;2.10;;;16.20;99.90;;;;;;4188714;28;20141;-65
2022/05/26 01:26:29;;;;;;;2.90;2.13;;;16.30;99.90;;;;;;4178789;28;20479;-65
2022/05/26 01:28:51;;;;;;;5.30;1.60;;;16.30;99.90;;;;;;4172505;28;20063;-66
2022/05/26 01:31:15;;;;;;;2.70;1.77;;;16.30;99.90;;;;;;4181905;28;20086;-65
2022/05/26 01:33:31;;;;;;;2.03;1.48;;;16.30;99.90;;;;;;4189513;28;20090;-67
2022/05/26 01:35:54;;;;;;;2.90;1.70;;;16.20;99.90;;;;;;4188749;28;20029;-66
2022/05/26 01:38:06;;;;;;;2.60;1.77;;;16.20;99.90;;;;;;4189335;28;20048;-66
2022/05/26 01:40:29;;;;;;;3.50;2.65;;;16.20;99.90;;;;;;4188444;28;20037;-65
2022/05/26 01:43:01;;;;;;;3.53;3.20;;;16.20;99.90;;;;;;4189826;28;20036;-65
2022/05/26 01:45:26;;;;;;;4.05;3.70;;;16.20;99.90;;;;;;4188512;28;20109;-65
2022/05/26 01:47:58;;;;;;;4.13;3.80;;;16.30;99.90;;;;;;4189518;28;20036;-65
2022/05/26 01:50:38;;;;;;;4.05;3.60;;;16.30;99.90;;;;;;4186040;28;20040;-66
2022/05/26 01:53:12;;;;;;;3.22;2.92;;;16.30;99.90;;;;;;4171280;28;20098;-65
2022/05/26 01:55:24;;;;;;;2.83;1.50;;;16.40;99.90;;;;;;4164893;28;20033;-65
2022/05/26 01:57:38;;;;;;;5.28;1.67;;;16.30;99.90;;;;;;4170226;28;20057;-65
2022/05/26 02:00:07;;;;;;;2.88;1.60;;;16.40;99.90;;;;;;4172805;28;20489;-65
2022/05/26 02:02:14;;;;;;;3.08;2.00;;;16.40;99.90;;;;;;4171628;28;20432;-65
2022/05/26 02:04:29;;;;;;;5.32;1.65;;;16.40;99.90;;;;;;4173047;28;20033;-65
2022/05/26 02:06:35;;;;;;;5.57;1.98;;;16.40;99.90;;;;;;4171580;28;20040;-66
2022/05/26 02:08:45;;;;;;;4.15;1.83;;;16.40;99.90;;;;;;4172680;28;20037;-65
2022/05/26 02:10:57;;;;;;;2.58;2.30;;;16.40;99.90;;;;;;4175527;28;20090;-66
2022/05/26 02:13:06;;;;;;;2.47;1.20;;;16.40;99.90;;;;;;4189343;28;20439;-66
2022/05/26 02:15:09;;;;;;;3.92;2.10;;;16.30;99.90;;;;;;4188089;28;20044;-65
2022/05/26 02:17:29;;;;;;;1.63;1.52;;;16.30;99.90;;;;;;4189440;28;20037;-65
2022/05/26 02:19:33;;;;;;;1.70;1.42;;;16.40;99.90;;;;;;4188267;28;20036;-65
2022/05/26 02:21:54;;;;;;;2.20;1.70;;;16.30;99.90;;;;;;4189222;28;20087;-66
2022/05/26 02:24:02;;;;;;;1.40;1.30;;;16.40;99.90;;;;;;4183686;28;20093;-66
2022/05/26 02:26:04;;;;;;;2.33;1.30;;;16.40;99.90;;;;;;4192063;28;20574;-66
2022/05/26 02:28:05;;;;;;;1.85;1.58;;;16.40;99.90;;;;;;4191408;28;20050;-66
2022/05/26 02:30:07;;;;;;;2.33;1.60;;;16.40;99.90;;;;;;4192889;28;20037;-67
2022/05/26 02:32:11;;;;;;;2.28;2.00;;;16.40;99.90;;;;;;4180837;28;20037;-66
2022/05/26 02:34:13;;;;;;;3.70;1.90;;;16.40;99.90;;;;;;4175972;28;20064;-66
2022/05/26 02:36:15;;;;;;;2.72;1.98;;;16.40;99.90;;;;;;4175321;28;20013;-66
2022/05/26 02:38:22;;;;;;;2.58;1.90;;;16.50;99.90;;;;;;4175414;28;20025;-70
2022/05/26 02:40:23;;;;;;;6.07;1.65;;;16.50;99.90;;;;;;4174817;28;20037;-66
2022/05/26 02:42:25;;;;;;;3.47;2.13;;;16.50;99.90;;;;;;4175774;28;20033;-65
2022/05/26 02:44:31;;;;;;;2.85;1.90;;;16.50;99.90;;;;;;4175296;28;20562;-66
2022/05/26 02:46:57;;;;;;;2.05;1.85;;;16.50;99.90;;;;;;4175250;28;20090;-68
2022/05/26 02:49:16;;;;;;;5.82;2.53;;;16.50;99.90;;;;;;4175005;28;20892;-68
2022/05/26 02:51:35;;;;;;;5.47;2.15;;;16.50;99.90;;;;;;4175426;28;20421;-66
2022/05/26 02:54:21;;;;;;;3.92;2.83;;;16.50;99.90;;;;;;4158308;28;20037;-66
2022/05/26 02:56:34;;;;;;;3.65;2.40;;;16.60;99.90;;;;;;4148592;28;20037;-66
2022/05/26 02:59:04;;;;;;;3.53;2.45;;;16.60;99.90;;;;;;4174379;28;20419;-66
2022/05/26 03:01:35;;;;;;;5.13;3.45;;;16.60;99.90;;;;;;4175661;28;20049;-65
2022/05/26 03:03:45;;;;;;;4.97;3.35;;;16.60;99.90;;;;;;4175391;28;20037;-66
2022/05/26 03:06:08;;;;;;;4.63;2.95;;;16.60;99.90;;;;;;4177059;28;20037;-66
2022/05/26 03:08:15;;;;;;;4.47;3.20;;;16.70;99.90;;;;;;4191513;28;20075;-66
2022/05/26 03:10:17;;;;;;;6.45;3.85;;;16.70;99.90;;;;;;4190564;28;20044;-66
2022/05/26 03:12:24;;;;;;;4.68;3.60;;;16.70;99.90;;;;;;4191086;28;20052;-70
2022/05/26 03:14:26;;;;;;;7.07;3.80;;;16.70;99.90;;;;;;4190778;28;20447;-65
2022/05/26 03:16:27;;;;;;;3.72;3.25;;;16.70;99.90;;;;;;4189247;28;20101;-66
2022/05/26 03:18:30;;;;;;;5.95;3.92;;;16.80;99.90;;;;;;4189492;28;20102;-66
2022/05/26 03:20:31;;;;;;;8.13;4.03;;;16.90;99.90;;;;;;4190777;28;20016;-73
2022/05/26 03:22:32;;;;;;;5.78;4.43;;;17.00;99.90;;;;;;4191803;28;20025;-67
2022/05/26 03:24:33;;;;;;;8.35;3.72;;;17.00;99.90;;;;;;4190760;28;20032;-65
2022/05/26 03:26:35;;;;;;;7.15;4.32;;;17.10;99.90;;;;;;4189759;28;20147;-65
2022/05/26 03:28:36;;;;;;;7.38;4.45;;;17.10;99.90;;;;;;4190270;28;20032;-65
2022/05/26 03:30:38;;;;;;;6.65;4.55;;;17.10;99.90;;;;;;4189686;28;20570;-67
2022/05/26 03:32:41;;;;;;;6.22;4.30;;;17.10;99.90;;;;;;4190552;28;20024;-65
2022/05/26 03:41:43;;;;;;;6.22;4.88;;;17.30;99.90;;;;;;4174686;28;20106;-66
2022/05/26 03:43:49;;;;;;;5.72;5.03;;;17.40;99.90;;;;;;4180255;28;20037;-71
2022/05/26 03:45:50;;;;;;;6.90;5.13;;;17.40;99.90;;;;;;4172162;28;20078;-66
2022/05/26 03:47:51;;;;;;;5.60;4.80;;;17.40;99.90;;;;;;4174697;28;20086;-75
2022/05/26 03:49:52;;;;;;;9.15;5.93;;;17.30;99.90;;;;;;4172139;28;20055;-64
2022/05/26 03:51:53;;;;;;;6.82;5.40;;;17.30;99.90;;;;;;4182470;28;20106;-64
2022/05/26 03:53:54;;;;;;;5.18;4.22;;;17.20;99.90;;;;;;4175963;28;20095;-65
2022/05/26 03:55:55;;;;;;;6.80;4.93;;;17.20;99.90;;;;;;4173925;28;20526;-64
2022/05/26 03:57:59;;;;;;;7.75;4.97;;;17.10;99.90;;;;;;4173736;28;20503;-64
2022/05/26 04:00:00;;;;;;;7.63;5.30;;;17.10;99.90;;;;;;4177258;28;20024;-67
2022/05/26 04:02:01;;;;;;;7.25;5.45;;;17.20;99.90;;;;;;4188786;28;20098;-64
2022/05/26 04:04:03;;;;;;;8.45;5.38;;;17.20;99.90;;;;;;4189271;28;20093;-64
2022/05/26 04:06:04;;;;;;;7.32;5.35;;;17.20;99.90;;;;;;4187898;28;20048;-72
2022/05/26 04:08:05;;;;;;;9.13;5.60;;;17.30;99.90;;;;;;4173877;28;20041;-66
2022/05/26 04:10:09;;;;;;;8.30;6.03;;;17.30;99.90;;;;;;4174061;28;20672;-65
2022/05/26 04:12:12;;;;;;;7.07;5.20;;;17.30;99.90;;;;;;4172640;28;20443;-69
2022/05/26 04:14:13;;;;;;;5.38;4.88;;;17.30;99.90;;;;;;4174152;28;20044;-64
2022/05/26 04:16:14;;;;;;;9.07;6.07;;;17.30;99.90;;;;;;4172872;28;20095;-65
2022/05/26 04:18:15;;;;;;;8.65;5.60;;;17.30;99.90;;;;;;4173542;28;20037;-65
2022/05/26 04:20:19;;;;;;;8.90;6.13;;;17.30;99.90;;;;;;4172944;28;20075;-68
2022/05/26 04:22:24;;;;;;;9.18;6.13;;;17.30;99.90;;;;;;4173333;28;20501;-67
2022/05/26 04:24:25;;;;;;;6.70;5.85;;;17.30;99.90;;;;;;4173036;28;20091;-67
2022/05/26 04:26:26;;;;;;;7.18;6.10;;;17.30;99.90;;;;;;4173564;28;20071;-65
2022/05/26 04:28:27;;;;;;;8.18;6.70;;;17.40;99.90;;;;;;4181361;28;20025;-65
2022/05/26 04:30:29;;;;;;;11.52;7.38;;;17.40;99.90;;;;;;4173365;28;20032;-67
2022/05/26 04:32:31;;;;;;;17.60;11.55;;;17.40;99.90;;;;;;4172899;28;20087;-67
2022/05/26 04:34:33;;;;;;;20.40;13.70;;;17.30;99.90;;;;;;4173640;28;20436;-65
2022/05/26 04:36:34;;;;;;;17.48;9.00;;;17.40;99.90;;;;;;4173125;28;20077;-65
2022/05/26 04:38:36;;;;;;;13.80;7.22;;;17.40;99.90;;;;;;4167154;28;20048;-65
2022/05/26 04:40:37;;;;;;;8.55;7.47;;;17.40;99.90;;;;;;4178541;28;20102;-64
2022/05/26 04:42:39;;;;;;;7.07;5.65;;;17.50;99.90;;;;;;4172878;28;20044;-65
2022/05/26 04:44:43;;;;;;;9.13;6.13;;;17.60;99.90;;;;;;4173366;28;20141;-66
2022/05/26 04:46:44;;;;;;;7.03;5.38;;;17.80;99.90;;;;;;4172383;28;20394;-63
2022/05/26 04:48:45;;;;;;;6.13;5.53;;;18.00;99.90;;;;;;4173471;28;20045;-64
2022/05/26 04:50:46;;;;;;;10.57;6.18;;;18.10;99.90;;;;;;4173260;28;20090;-66
2022/05/26 04:52:47;;;;;;;9.07;5.65;;;18.20;99.90;;;;;;4162366;28;20048;-64
2022/05/26 04:54:49;;;;;;;10.43;6.05;;;18.50;99.90;;;;;;4187364;28;20036;-71
2022/05/26 04:56:59;;;;;;;8.18;6.18;;;18.70;99.90;;;;;;4187870;28;20063;-63
2022/05/26 04:59:00;;;;;;;6.45;5.60;;;18.80;99.90;;;;;;4188663;28;20040;-67
2022/05/26 05:01:10;;;;;;;7.60;5.20;;;19.00;99.90;;;;;;4188912;28;20465;-65
2022/05/26 05:03:11;;;;;;;12.25;5.60;;;19.10;99.90;;;;;;4188966;28;20040;-63
2022/05/26 05:05:12;;;;;;;7.95;4.95;;;19.20;99.90;;;;;;4189325;28;20059;-73
2022/05/26 05:07:18;;;;;;;9.65;5.50;;;19.20;99.90;;;;;;4189107;28;20048;-65
2022/05/26 05:09:19;;;;;;;7.85;5.43;;;19.20;99.90;;;;;;4188948;28;20635;-65
2022/05/26 05:11:20;;;;;;;7.97;5.10;;;19.70;99.90;;;;;;4188855;28;20534;-65
2022/05/26 05:13:21;;;;;;;14.23;5.72;;;20.00;99.90;;;;;;4188779;28;20049;-71
2022/05/26 05:15:32;;;;;;;9.15;5.38;;;20.40;99.90;;;;;;4189044;28;20041;-65
2022/05/26 05:17:33;;;;;;;9.60;5.38;;;20.90;99.90;;;;;;4188463;28;20033;-66
2022/05/26 05:19:35;;;;;;;11.07;5.20;;;21.30;99.90;;;;;;4189101;28;20078;-65
2022/05/26 05:21:40;;;;;;;6.07;4.85;;;21.60;99.90;;;;;;4188403;28;20041;-65
2022/05/26 05:23:47;;;;;;;6.07;4.90;;;21.40;99.90;;;;;;4189020;28;20880;-63
2022/05/26 05:25:51;;;;;;;8.50;5.35;;;21.60;99.90;;;;;;4187929;28;20036;-65
2022/05/26 05:28:00;;;;;;;5.28;4.18;;;22.10;99.90;;;;;;4189272;28;20044;-68
2022/05/26 05:30:10;;;;;;;4.88;4.30;;;22.30;99.90;;;;;;4188041;28;20029;-65
2022/05/26 05:32:31;;;;;;;5.13;4.63;;;22.60;99.90;;;;;;4188934;28;20086;-65
2022/05/26 05:34:37;;;;;;;6.13;3.88;;;23.30;99.90;;;;;;4188473;28;20226;-65
2022/05/26 05:36:39;;;;;;;9.85;4.55;;;23.70;99.90;;;;;;4189018;28;20036;-65
2022/05/26 05:38:41;;;;;;;4.65;4.20;;;24.00;99.90;;;;;;4188316;28;20473;-65
2022/05/26 05:40:42;;;;;;;8.15;5.50;;;;;;;;;;4188508;28;20404;-65
2022/05/26 05:42:44;;;;;;;7.28;4.20;;;;;;;;;;4188004;28;20098;-66
2022/05/26 05:44:45;;;;;;;9.88;4.22;;;;;;;;;;4188493;28;20542;-67
2022/05/26 05:46:59;;;;;;;10.77;4.00;;;;;;;;;;4188014;28;20492;-65
2022/05/26 05:49:02;;;;;;;5.68;3.55;;;;;;;;;;4188920;28;20150;-66
2022/05/26 05:51:04;;;;;;;7.45;4.63;;;;;;;;;;4187743;28;20028;-66
2022/05/26 05:53:05;;;;;;;4.82;3.97;;;;;;;;;;4188412;28;20126;-65
2022/05/26 05:55:09;;;;;;;5.05;3.78;;;;;;;;;;4188432;28;20457;-64
2022/05/26 05:57:10;;;;;;;4.40;4.00;;;24.40;99.90;;;;;;4187452;28;20049;-64
2022/05/26 05:59:12;;;;;;;10.20;4.28;;;;;;;;;;4188775;28;20104;-65
2022/05/26 06:01:13;;;;;;;4.95;4.07;;;25.70;99.90;;;;;;4188470;28;20028;-64
2022/05/26 06:03:14;;;;;;;8.13;4.25;;;25.80;99.90;;;;;;4188295;28;20025;-67
2022/05/26 06:05:15;;;;;;;7.47;4.53;;;25.80;99.90;;;;;;4187893;28;20451;-67
2022/05/26 06:07:18;;;;;;;6.75;3.85;;;26.00;99.90;;;;;;4188581;28;20045;-67
2022/05/26 06:09:20;;;;;;;6.88;3.63;;;25.60;99.90;;;;;;4188227;28;20036;-64
2022/05/26 06:11:21;;;;;;;5.88;3.70;;;25.20;99.90;;;;;;4188494;28;20033;-64
2022/05/26 06:13:22;;;;;;;4.97;3.55;;;25.00;99.90;;;;;;4188154;28;20048;-64
2022/05/26 06:15:24;;;;;;;6.88;3.90;;;24.80;99.90;;;;;;4188548;28;20465;-64
2022/05/26 06:17:25;;;;;;;4.65;3.42;;;24.70;99.90;;;;;;4187457;28;20492;-64
2022/05/26 06:19:27;;;;;;;7.70;3.53;;;24.40;99.90;;;;;;4188509;28;20081;-69
2022/05/26 06:21:28;;;;;;;4.65;3.65;;;24.20;99.90;;;;;;4188028;28;20048;-66
2022/05/26 06:23:29;;;;;;;5.35;3.40;;;24.50;99.90;;;;;;4188476;28;20107;-68
2022/05/26 06:25:30;;;;;;;5.25;3.55;;;24.90;99.90;;;;;;4188436;28;20036;-66
2022/05/26 06:29:53;;;;;;;4.50;3.25;;;24.90;99.90;;;;;;4188459;28;20037;-65
2022/05/26 06:38:53;;;;;;;3.88;3.45;;;23.60;99.90;;;;;;4187994;28;20094;-65
2022/05/26 06:40:54;;;;;;;4.45;4.05;;;23.50;99.90;;;;;;4188273;28;20032;-65
2022/05/26 06:42:56;;;;;;;5.28;2.97;;;23.50;99.90;;;;;;4188042;28;20086;-66
2022/05/26 06:44:57;;;;;;;5.93;4.18;;;23.60;99.90;;;;;;4188204;28;20093;-66
2022/05/26 06:46:58;;;;;;;5.20;3.15;;;23.80;99.90;;;;;;4188022;28;20046;-67
2022/05/26 06:48:59;;;;;;;3.35;3.05;;;23.80;99.90;;;;;;4188120;28;20541;-65
2022/05/26 06:51:01;;;;;;;10.07;3.50;;;23.80;99.90;;;;;;4187930;28;20082;-66
2022/05/26 06:53:02;;;;;;;6.72;3.60;;;23.70;99.90;;;;;;4188044;28;20028;-65
2022/05/26 06:55:06;;;;;;;3.50;3.20;;;23.70;99.90;;;;;;4188305;28;20032;-64
2022/05/26 06:57:09;;;;;;;3.53;3.22;;;23.60;99.90;;;;;;4187938;28;20102;-63
2022/05/26 06:59:11;;;;;;;5.38;3.03;;;23.20;99.90;;;;;;4188275;28;20040;-66
2022/05/26 07:01:14;;;;;;;4.75;3.13;;;23.10;99.90;;;;;;4187929;28;20028;-65
2022/05/26 07:03:15;;;;;;;5.40;3.30;;;22.90;99.90;;;;;;4188314;28;20048;-65
2022/05/26 07:05:16;;;;;;;3.42;3.13;;;23.00;99.90;;;;;;4187712;28;20040;-65
2022/05/26 07:07:18;;;;;;;4.43;3.15;;;23.00;99.90;;;;;;4188382;28;21076;-64
2022/05/26 07:09:20;;;;;;;3.55;3.25;;;22.80;99.90;;;;;;4189941;28;20040;-64
2022/05/26 07:11:22;;;;;;;3.13;2.72;;;22.90;99.90;;;;;;4191372;28;20636;-64
2022/05/26 07:13:24;;;;;;;6.43;3.00;;;23.00;99.90;;;;;;4190658;28;20928;-64
2022/05/26 07:15:25;;;;;;;5.15;2.53;;;23.00;99.90;;;;;;4191186;28;20562;-64
2022/05/26 07:17:26;;;;;;;5.18;2.50;;;22.80;99.90;;;;;;4190553;28;20102;-72
2022/05/26 07:19:31;;;;;;;4.28;3.03;;;22.60;99.90;;;;;;4189490;28;20463;-65
2022/05/26 07:21:33;;;;;;;3.75;2.67;;;22.50;99.90;;;;;;4190205;28;20106;-67
2022/05/26 07:23:34;;;;;;;4.68;3.17;;;22.70;99.90;;;;;;4190420;28;20092;-64
2022/05/26 07:25:43;;;;;;;5.65;3.20;;;22.60;99.90;;;;;;4190281;28;20100;-66
2022/05/26 07:27:44;;;;;;;4.80;3.15;;;22.50;99.90;;;;;;4189048;28;20090;-69
2022/05/26 07:29:45;;;;;;;10.73;4.25;;;22.30;99.90;;;;;;4190587;28;20098;-65
2022/05/26 07:31:47;;;;;;;5.07;2.65;;;22.30;99.90;;;;;;4188897;28;20071;-67
2022/05/26 07:33:48;;;;;;;6.78;2.92;;;22.30;99.90;;;;;;4190223;28;20052;-65
2022/05/26 07:35:49;;;;;;;4.25;2.60;;;22.40;99.90;;;;;;4190103;28;20029;-66
2022/05/26 07:42:33;;;;;;;5.18;2.65;;;22.80;99.90;;;;;;4190531;28;20043;-67
2022/05/26 07:44:37;;;;;;;3.20;1.75;;;22.80;99.90;;;;;;4190123;28;20036;-65
2022/05/26 07:46:39;;;;;;;2.28;1.50;;;22.80;99.90;;;;;;4190553;28;20060;-64
2022/05/26 07:48:41;;;;;;;2.13;1.48;;;22.70;99.90;;;;;;4189796;28;20086;-66
2022/05/26 07:50:42;;;;;;;2.05;1.85;;;22.60;99.90;;;;;;4190717;28;20028;-65
2022/05/26 07:52:43;;;;;;;2.63;1.88;;;22.60;99.90;;;;;;4189682;28;20040;-64
2022/05/26 07:54:44;;;;;;;2.40;1.17;;;22.60;99.90;;;;;;4190784;28;20025;-64
2022/05/26 07:56:46;;;;;;;2.67;1.42;;;22.70;99.90;;;;;;4189843;28;20028;-64
2022/05/26 07:58:47;;;;;;;2.38;1.17;;;22.80;99.60;;;;;;4190544;28;20063;-64
2022/05/26 08:00:52;;;;;;;2.72;1.10;;;22.90;99.40;;;;;;4188022;28;20389;-65
2022/05/26 08:02:53;;;;;;;4.63;1.00;;;23.00;98.80;;;;;;4190297;28;20078;-65
2022/05/26 08:04:54;;;;;;;2.03;0.63;;;23.10;98.70;;;;;;4189903;28;20041;-64
2022/05/26 08:06:55;;;;;;;0.60;0.50;;;23.00;98.30;;;;;;4189722;28;20109;-69
2022/05/26 08:08:57;;;;;;;1.35;0.50;;;23.00;98.00;;;;;;4189371;28;20041;-69
2022/05/26 08:10:58;;;;;;;1.08;0.60;;;22.90;97.50;;;;;;4189702;28;20033;-66
2022/05/26 08:12:59;;;;;;;2.67;0.40;;;22.80;97.30;;;;;;4189987;28;20512;-65
2022/05/26 08:15:00;;;;;;;0.60;0.50;;;22.90;97.70;;;;;;4189497;28;20037;-67
2022/05/26 08:17:01;;;;;;;3.95;0.82;;;23.00;97.40;;;;;;4190074;28;20021;-64
2022/05/26 08:19:03;;;;;;;3.35;0.70;;;23.20;97.50;;;;;;4189512;28;20044;-64
2022/05/26 08:21:10;;;;;;;1.33;0.60;;;23.30;97.60;;;;;;4189528;28;20024;-64
2022/05/26 08:23:12;;;;;;;1.45;0.47;;;23.40;97.40;;;;;;4189064;28;20081;-64
2022/05/26 08:25:13;;;;;;;3.75;0.90;;;23.40;97.00;;;;;;4190146;28;20423;-65
2022/05/26 08:27:14;;;;;;;2.05;0.47;;;23.60;96.80;;;;;;4188712;28;20052;-71
2022/05/26 08:29:16;;;;;;;4.10;0.43;;;23.50;96.30;;;;;;4189868;28;20098;-64
2022/05/26 08:31:17;;;;;;;1.17;0.30;;;23.50;96.30;;;;;;4189031;28;20029;-65
2022/05/26 08:33:18;;;;;;;0.30;0.28;;;23.50;95.70;;;;;;4189893;28;20051;-65
2022/05/26 08:35:20;;;;;;;1.85;0.40;;;23.60;95.40;;;;;;4187254;28;20036;-65
2022/05/26 08:37:21;;;;;;;3.25;0.40;;;23.50;94.70;;;;;;4189867;28;20616;-67
2022/05/26 08:39:22;;;;;;;2.10;0.38;;;23.50;94.10;;;;;;4189084;28;20024;-65
2022/05/26 08:41:28;;;;;;;0.73;0.20;;;23.50;94.10;;;;;;4189270;28;20032;-65
2022/05/26 08:43:42;;;;;;;2.85;0.63;;;23.50;93.90;;;;;;4189733;28;20029;-65
2022/05/26 08:45:54;;;;;;;1.85;0.80;;;23.60;94.40;;;;;;4189221;28;20041;-65
2022/05/26 08:47:55;;;;;;;6.28;1.70;;;23.60;95.40;;;;;;4189553;28;20468;-66
2022/05/26 08:50:09;;;;;;;7.15;1.00;;;23.10;96.00;;;;;;4189084;28;20028;-65
2022/05/26 08:52:10;;;;;;;1.27;1.17;;;23.00;96.70;;;;;;4189208;28;20096;-64
2022/05/26 08:54:16;;;;;;;21.70;2.95;;;22.50;97.00;;;;;;4187533;28;20082;-68
2022/05/26 08:56:23;;;;;;;6.53;0.80;;;22.50;97.70;;;;;;4189036;28;20074;-65
2022/05/26 08:58:31;;;;;;;5.15;1.05;;;22.50;97.80;;;;;;4188650;28;20044;-66
2022/05/26 09:00:34;;;;;;;5.40;1.23;;;22.40;98.10;;;;;;4189414;28;20033;-65
2022/05/26 09:02:37;;;;;;;25.65;3.60;;;22.40;98.30;;;;;;4188795;28;20633;-68
2022/05/26 09:04:38;;;;;;;1.83;0.90;;;22.30;98.60;;;;;;4189095;28;20089;-65
2022/05/26 09:13:51;;;;;;;7.72;1.30;;;21.90;98.80;;;;;;4189135;28;20455;-64
2022/05/26 09:15:53;;;;;;;3.60;1.00;;;22.00;99.00;;;;;;4188870;28;20085;-65
2022/05/26 09:17:55;;;;;;;3.55;1.10;;;22.20;98.50;;;;;;4189044;28;20108;-64
2022/05/26 09:19:57;;;;;;;3.17;0.95;;;22.30;98.50;;;;;;4188135;28;20427;-65
2022/05/26 09:21:59;;;;;;;0.75;0.50;;;22.60;98.20;;;;;;4188562;28;20024;-65
2022/05/26 09:24:26;;;;;;;1.13;0.43;;;22.70;97.00;;;;;;4187979;28;20827;-65
2022/05/26 09:26:28;;;;;;;1.48;0.32;;;22.80;95.20;;;;;;4188434;28;20020;-65
2022/05/26 09:28:49;;;;;;;0.80;0.60;;;22.80;95.60;;;;;;4188455;28;20451;-65
2022/05/26 09:30:50;;;;;;;3.05;0.65;;;22.80;95.20;;;;;;4188953;28;20078;-64
2022/05/26 09:32:52;;;;;;;1.40;0.80;;;22.80;95.70;;;;;;4187183;28;20044;-63
2022/05/26 09:35:25;;;;;;;6.95;1.10;;;22.80;95.60;;;;;;4188992;28;20036;-71
2022/05/26 09:37:42;;;;;;;2.45;0.88;;;22.70;93.90;;;;;;4188303;28;20036;-64
2022/05/26 09:39:43;;;;;;;2.33;0.47;;;22.70;93.60;;;;;;4188290;28;20040;-65
2022/05/26 09:41:48;;;;;;;0.85;0.60;;;22.70;94.20;;;;;;4188094;28;20040;-66
2022/05/26 09:43:58;;;;;;;0.90;0.82;;;22.80;94.20;;;;;;4188882;28;20082;-65
2022/05/26 09:46:08;;;;;;;1.63;0.65;;;22.80;93.90;;;;;;4188433;28;20040;-65
2022/05/26 09:48:26;;;;;;;0.77;0.20;;;22.70;93.40;;;;;;4188567;28;20070;-63
2022/05/26 09:50:33;;;;;;;3.30;0.38;;;22.70;92.30;;;;;;4188173;28;20089;-63
2022/05/26 09:52:49;;;;;;;0.63;0.47;;;22.60;92.50;;;;;;4188237;28;20028;-64
2022/05/26 09:55:07;;;;;;;5.28;0.80;;;22.70;93.10;;;;;;4188253;28;20074;-67
2022/05/26 09:57:28;;;;;;;1.65;0.32;;;22.80;92.90;;;;;;4188320;28;20032;-64
2022/05/26 09:59:39;;;;;;;1.95;0.40;;;22.70;92.20;;;;;;4188478;28;20048;-65
2022/05/26 10:01:43;;;;;;;4.57;0.40;;;22.60;92.50;;;;;;4188127;28;20437;-64
2022/05/26 10:03:59;;;;;;;0.60;0.40;;;22.70;92.50;;;;;;4186955;28;20119;-66
2022/05/26 10:06:29;;;;;;;0.73;0.30;;;22.60;91.90;;;;;;4187603;28;20024;-65
2022/05/26 10:08:42;;;;;;;5.00;0.40;;;22.70;91.60;;;;;;4188237;28;20041;-65
2022/05/26 10:10:48;;;;;;;3.80;0.30;;;22.80;91.70;;;;;;4187887;28;20420;-64
2022/05/26 10:13:10;;;;;;;0.50;0.30;;;22.90;90.80;;;;;;4187489;28;20098;-65
2022/05/26 10:15:39;;;;;;;4.07;0.50;;;22.80;89.30;;;;;;4188020;28;20041;-64
2022/05/26 10:17:56;;;;;;;1.75;0.50;;;22.90;90.00;;;;;;4188245;28;20552;-64
2022/05/26 10:20:31;;;;;;;1.38;0.40;;;23.00;88.90;;;;;;4186315;28;20044;-64
2022/05/26 10:23:10;;;;;;;0.20;0.20;;;23.00;87.70;;;;;;4188252;28;20037;-65
2022/05/26 10:25:18;;;;;;;0.73;0.20;;;22.90;87.00;;;;;;4187365;28;20461;-65
2022/05/26 10:27:37;;;;;;;5.40;1.17;;;22.90;87.80;;;;;;4187652;28;20090;-64
2022/05/26 10:29:45;;;;;;;4.53;0.50;;;22.90;87.70;;;;;;4187871;28;20025;-64
2022/05/26 10:32:11;;;;;;;0.88;0.30;;;23.00;88.30;;;;;;4188090;28;20090;-64
2022/05/26 10:34:35;;;;;;;2.00;0.50;;;23.10;87.50;;;;;;4187736;28;20090;-65
2022/05/26 10:37:16;;;;;;;0.70;0.50;;;23.10;86.00;;;;;;4167928;28;20044;-64
2022/05/26 10:39:35;;;;;;;1.15;0.30;;;23.10;85.80;;;;;;4188370;28;20710;-65
2022/05/26 10:42:01;;;;;;;6.60;1.48;;;23.20;86.00;;;;;;4187333;28;20458;-65
2022/05/26 10:44:09;;;;;;;0.40;0.22;;;23.30;82.20;;;;;;4191284;28;20362;-65
2022/05/26 10:46:10;;;;;;;3.22;0.20;;;23.30;82.40;;;;;;4189455;28;20098;-64
2022/05/26 10:48:35;;;;;;;0.85;0.20;;;23.20;83.30;;;;;;4191353;28;20122;-64
2022/05/26 10:51:08;;;;;;;1.25;0.22;;;23.20;81.10;;;;;;4190659;28;20790;-65
2022/05/26 10:53:49;;;;;;;1.90;0.20;;;23.10;79.00;;;;;;4191128;28;20043;-63
2022/05/26 10:56:28;;;;;;;5.55;0.45;;;23.10;79.60;;;;;;4178524;28;20029;-65
2022/05/26 10:58:51;;;;;;;0.35;0.30;;;23.10;77.90;;;;;;4178053;28;20443;-65
2022/05/26 11:00:58;;;;;;;0.20;0.20;;;23.10;79.20;;;;;;4191714;28;20082;-63
2022/05/26 11:03:22;;;;;;;2.85;0.30;;;23.00;77.90;;;;;;4188129;28;20094;-63
2022/05/26 11:05:48;;;;;;;0.80;0.60;;;23.00;77.20;;;;;;4191200;28;20105;-64
2022/05/26 11:08:04;;;;;;;0.85;0.10;;;23.20;76.50;;;;;;4190600;28;20098;-64
2022/05/26 11:10:09;;;;;;;0.50;0.30;;;23.20;73.90;;;;;;4189158;28;20052;-64
2022/05/26 11:12:29;;;;;;;0.70;0.20;;;23.30;74.80;;;;;;4190147;28;20177;-64
2022/05/26 11:19:31;;;;;;;0.57;0.22;;;23.00;71.80;;;;;;4190814;28;20085;-65
2022/05/26 11:21:33;;;;;;;1.30;0.20;;;23.00;71.00;;;;;;4191175;28;20036;-68
2022/05/26 11:23:38;;;;;;;6.57;0.50;;;23.10;71.50;;;;;;4190619;28;20082;-64
2022/05/26 11:25:51;;;;;;;1.55;0.10;;;23.00;71.50;;;;;;4191063;28;20020;-64
2022/05/26 11:28:02;;;;;;;1.35;0.68;;;22.90;72.30;;;;;;4190031;28;20485;-65
2022/05/26 11:36:07;;;;;;;1.38;0.30;;;22.90;69.90;;;;;;4190566;28;20037;-65
2022/05/26 11:37:39;;;;;;;1.55;0.35;;;22.90;72.80;;;;;;4190063;28;20089;-64
2022/05/26 11:39:43;;;;;;;2.95;0.47;;;22.80;72.60;;;;;;4189193;28;20044;-64
2022/05/26 11:41:58;;;;;;;3.90;0.65;;;22.80;73.20;;;;;;4189464;28;20491;-65
2022/05/26 11:44:06;;;;;;;2.28;0.60;;;22.90;73.20;;;;;;4190972;28;20557;-66
2022/05/26 11:46:09;;;;;;;1.30;0.50;;;23.00;73.70;;;;;;4190127;28;20082;-65